Biloxi, MS (39530)

5:29 PM CST on December 03, 2016 (GMT -0600)
Forest Cove | | Change Station

Elev 46 ft 30.44 °N, 88.91 °W | Updated 10 minutes ago

Overcast
Overcast
60.1 °F
Feels Like 60.1 °F
N
1.7
Wind Variable Wind from ESE

Today
High -- | Low -- °F
--% Chance of Precip.
Yesterday
High -- | Low -- °F
Precip. -- in
Pressure 30.07 in
Visibility 10.0 miles
Clouds Overcast 3100 ft
Dew Point 41 °F
Humidity 50%
Rainfall 0.02 in
Snow Depth Not available.
6:36 AM 4:54 PM
Waxing Crescent, 18% visible
METAR KBIX 032258Z AUTO 07012KT 10SM OVC031 16/04 A3006 RMK AO2 SLP182 T01620039
Pressure 30.07 in
Visibility 10.0 miles
Clouds Overcast 3100 ft
Dew Point 41 °F
Humidity 50%
Rainfall 0.02 in
Snow Depth Not available.
6:36 AM 4:54 PM
Waxing Crescent, 18% visible
METAR KBIX 032258Z AUTO 07012KT 10SM OVC031 16/04 A3006 RMK AO2 SLP182 T01620039

10-Day Weather Forecast

Almanac

Astronomy

Dec. 03, 2016 Rise Set
Actual Time
Civil Twilight
Nautical Twilight
Astronomical Twilight
Moon
Length of Visible Light
Length of Day
Tomorrow will be .
, % of the Moon is Illuminated

Today's Extremes

State Highs State Lows

Community

WunderPhotos

Upload Photos

1,955,540 photos uploaded!

WunderBlog® & News

Nearby

Air Quality

  Air Quality AQ Index Pollutant
Not available.

Snow Depth

Station Depth Elevation

Earthquake Activity

City Distance Mag. Time & Date
Minimum magnitude displayed is 2.5.

Coastal Water Temperatures

Place Temperature

Stations

Nearby Weather Stations

Station Location Temp. Windchill Dew Point Humidity Wind Precip. Elev Updated Type
                   

Watches & Warnings

There are currently no watches in effect.